Time;durP1;ratioP1;P1;durP2;ratioP2;P2;SDS_P1;SDS_P2;PMS_P1;PMS_P2;Temp;Humidity;BMP_temperature;BMP_pressure;BME280_temperature;BME280_humidity;BME280_pressure;Samples;Min_cycle;Max_cycle;Signal;HPM_P1;HPM_P2
2022/06/15 00:02:23;;;;;;;11.68;5.15;;;13.40;90.70;;;;;;5029182;28;20052;-75
2022/06/15 00:04:51;;;;;;;13.18;5.18;;;13.40;90.90;;;;;;4998013;28;20072;-75
2022/06/15 00:07:18;;;;;;;16.48;5.20;;;13.30;91.00;;;;;;5014110;28;20061;-75
2022/06/15 00:09:46;;;;;;;11.70;5.90;;;13.30;91.10;;;;;;5015200;28;20483;-75
2022/06/15 00:12:14;;;;;;;16.70;6.03;;;13.30;91.30;;;;;;5015279;28;20041;-76
2022/06/15 00:14:42;;;;;;;;;;;13.20;91.40;;;;;;5014482;28;20479;-75
2022/06/15 00:17:09;;;;;;;14.93;5.55;;;13.10;92.60;;;;;;5015309;28;19929;-75
2022/06/15 00:19:37;;;;;;;10.13;5.72;;;13.10;91.40;;;;;;5013941;28;20399;-75
2022/06/15 00:22:05;;;;;;;13.23;5.32;;;13.10;91.50;;;;;;5015145;28;20050;-75
2022/06/15 00:24:32;;;;;;;12.55;5.35;;;13.00;91.90;;;;;;5015134;28;20052;-75
2022/06/15 00:27:00;;;;;;;11.48;5.10;;;13.00;91.80;;;;;;5013811;28;20368;-75
2022/06/15 00:29:27;;;;;;;15.15;5.47;;;12.90;91.90;;;;;;5014815;28;20057;-75
2022/06/15 00:31:55;;;;;;;11.65;5.30;;;12.90;92.00;;;;;;5014412;28;20050;-75
2022/06/15 00:34:23;;;;;;;9.00;5.25;;;12.80;92.10;;;;;;4980590;28;20062;-74
2022/06/15 00:36:50;;;;;;;13.73;4.88;;;12.80;92.30;;;;;;5015001;28;20049;-75
2022/06/15 00:39:18;;;;;;;12.88;4.57;;;12.80;92.30;;;;;;4996443;28;20464;-74
2022/06/15 00:41:45;;;;;;;12.27;4.35;;;12.70;92.40;;;;;;5014983;28;20050;-75
2022/06/15 00:44:19;;;;;;;9.70;4.28;;;12.70;92.50;;;;;;5015235;28;20038;-75
2022/06/15 00:46:51;;;;;;;12.55;4.82;;;12.70;92.60;;;;;;5013943;28;20050;-75
2022/06/15 00:49:47;;;;;;;11.15;4.55;;;12.60;92.70;;;;;;4997917;28;20046;-75
2022/06/15 00:52:24;;;;;;;14.75;4.80;;;12.60;93.00;;;;;;5015231;28;20042;-75
2022/06/15 00:54:52;;;;;;;10.02;5.10;;;12.50;93.00;;;;;;5013592;28;20065;-75
2022/06/15 00:57:20;;;;;;;13.18;5.10;;;12.50;93.10;;;;;;5014665;28;20057;-75
2022/06/15 00:59:57;;;;;;;16.52;5.35;;;12.50;93.30;;;;;;4996622;28;20053;-75
2022/06/15 01:02:27;;;;;;;12.77;5.05;;;12.40;93.70;;;;;;5005746;28;20371;-75
2022/06/15 01:04:59;;;;;;;13.40;5.22;;;12.40;93.40;;;;;;5049873;28;20057;-75
2022/06/15 01:07:49;;;;;;;12.10;5.75;;;12.30;93.60;;;;;;5033465;28;20447;-75
2022/06/15 01:10:36;;;;;;;14.30;5.45;;;12.30;94.60;;;;;;5024646;28;20487;-75
2022/06/15 01:13:19;;;;;;;11.25;5.43;;;12.20;94.00;;;;;;5032673;28;20046;-75
2022/06/15 01:16:25;;;;;;;13.32;5.45;;;12.20;94.20;;;;;;5034667;28;20052;-75
2022/06/15 01:19:16;;;;;;;15.20;6.15;;;12.20;95.50;;;;;;4961149;28;20053;-75
2022/06/15 01:22:00;;;;;;;14.27;6.30;;;12.20;94.30;;;;;;4977235;28;20055;-75
2022/06/15 01:24:45;;;;;;;16.90;6.40;;;12.20;94.50;;;;;;5028355;28;20049;-75
2022/06/15 01:27:34;;;;;;;10.63;6.10;;;12.10;94.80;;;;;;5036775;28;20053;-75
2022/06/15 01:30:18;;;;;;;16.08;7.00;;;12.10;95.20;;;;;;5038207;28;20057;-75
2022/06/15 01:33:06;;;;;;;14.23;6.72;;;12.10;94.90;;;;;;5035864;28;20060;-75
2022/06/15 01:35:54;;;;;;;9.93;6.40;;;12.00;95.20;;;;;;5037662;28;20057;-75
2022/06/15 01:38:32;;;;;;;14.23;6.63;;;12.00;95.70;;;;;;5037107;28;20045;-75
2022/06/15 01:41:11;;;;;;;13.90;7.15;;;12.00;95.40;;;;;;5035980;28;20053;-74
2022/06/15 01:43:50;;;;;;;13.15;6.53;;;11.90;95.30;;;;;;5037810;28;20056;-75
2022/06/15 01:46:20;;;;;;;11.05;6.55;;;11.90;95.40;;;;;;5035742;28;20041;-75
2022/06/15 01:48:51;;;;;;;14.35;6.93;;;11.90;95.50;;;;;;5037389;28;20053;-74
2022/06/15 01:51:22;;;;;;;13.20;6.93;;;11.90;95.60;;;;;;5053544;28;20045;-75
2022/06/15 01:53:58;;;;;;;16.02;7.65;;;11.80;95.60;;;;;;5019136;28;20049;-75
2022/06/15 01:56:39;;;;;;;11.85;6.90;;;11.80;95.80;;;;;;5036422;28;20045;-75
2022/06/15 01:59:33;;;;;;;13.88;7.18;;;11.70;96.10;;;;;;5020550;28;20042;-75
2022/06/15 02:02:13;;;;;;;12.35;6.57;;;11.70;96.60;;;;;;5034054;28;20048;-75
2022/06/15 02:04:51;;;;;;;15.38;7.45;;;11.70;96.10;;;;;;4984153;28;20046;-75
2022/06/15 02:07:33;;;;;;;14.63;7.10;;;11.60;96.20;;;;;;4999579;28;20049;-75
2022/06/15 02:10:16;;;;;;;15.77;7.22;;;11.60;96.40;;;;;;5000211;28;20042;-75
2022/06/15 02:12:51;;;;;;;10.30;6.68;;;11.50;96.50;;;;;;5016274;28;20053;-75
2022/06/15 02:15:25;;;;;;;13.63;7.43;;;11.50;96.70;;;;;;4984472;28;20046;-75
2022/06/15 02:17:58;;;;;;;11.63;7.25;;;11.50;96.60;;;;;;5000490;28;20053;-75
2022/06/15 02:20:30;;;;;;;14.75;6.47;;;11.40;96.80;;;;;;4999230;28;20046;-75
2022/06/15 02:23:02;;;;;;;14.23;7.47;;;11.40;96.90;;;;;;5000030;28;20053;-75
2022/06/15 02:25:34;;;;;;;14.18;6.45;;;11.30;96.90;;;;;;5000087;28;20041;-75
2022/06/15 02:28:06;;;;;;;10.73;6.53;;;11.30;97.00;;;;;;4998967;28;20042;-75
2022/06/15 02:30:39;;;;;;;13.98;6.30;;;11.30;97.10;;;;;;5000004;28;20555;-75
2022/06/15 02:33:23;;;;;;;14.15;7.03;;;11.20;97.40;;;;;;5015252;28;20041;-75
2022/06/15 02:35:53;;;;;;;13.40;6.70;;;11.20;97.80;;;;;;4983534;28;20053;-75
2022/06/15 02:38:22;;;;;;;11.57;6.45;;;11.20;97.50;;;;;;4983356;28;20067;-75
2022/06/15 02:40:51;;;;;;;15.25;6.35;;;11.20;97.50;;;;;;4999081;28;20050;-75
2022/06/15 02:43:24;;;;;;;19.15;7.00;;;11.10;97.80;;;;;;4999897;28;20076;-75
2022/06/15 02:45:57;;;;;;;12.75;6.40;;;11.10;97.60;;;;;;4999302;28;20045;-75
2022/06/15 02:48:31;;;;;;;10.50;6.03;;;11.10;97.60;;;;;;4999439;28;20045;-74
2022/06/15 02:51:08;;;;;;;11.57;6.00;;;11.00;97.70;;;;;;4999648;28;20046;-75
2022/06/15 02:53:42;;;;;;;13.13;5.78;;;11.00;97.80;;;;;;4998590;28;20063;-75
2022/06/15 02:56:13;;;;;;;10.20;5.85;;;11.00;97.90;;;;;;5016555;28;20046;-75
2022/06/15 02:58:45;;;;;;;14.20;6.25;;;11.00;97.90;;;;;;5016289;28;20368;-75
2022/06/15 03:01:13;;;;;;;14.50;7.05;;;10.90;97.90;;;;;;4998271;28;20038;-75
2022/06/15 03:03:43;;;;;;;15.02;7.72;;;10.90;98.10;;;;;;5028407;28;20048;-75
2022/06/15 03:06:20;;;;;;;14.57;7.18;;;10.90;98.40;;;;;;5050826;28;20041;-74
2022/06/15 03:08:50;;;;;;;15.40;7.05;;;10.90;98.40;;;;;;5051818;28;20049;-75
2022/06/15 03:11:26;;;;;;;12.57;7.30;;;10.80;98.40;;;;;;5035009;28;20088;-75
2022/06/15 03:13:59;;;;;;;12.88;7.00;;;10.80;98.60;;;;;;5034179;28;20049;-74
2022/06/15 03:16:29;;;;;;;15.80;6.93;;;10.80;98.70;;;;;;5035140;28;20056;-75
2022/06/15 03:18:57;;;;;;;13.63;7.07;;;10.80;98.80;;;;;;5035166;28;20037;-75
2022/06/15 03:21:24;;;;;;;13.98;6.20;;;10.80;98.80;;;;;;5034015;28;20490;-74
2022/06/15 03:23:52;;;;;;;16.20;6.20;;;10.70;98.90;;;;;;5034854;28;20052;-74
2022/06/15 03:26:20;;;;;;;15.88;6.75;;;10.70;99.00;;;;;;5034643;28;20056;-75
2022/06/15 03:28:48;;;;;;;14.38;6.78;;;10.70;99.00;;;;;;5034804;28;20367;-75
2022/06/15 03:31:18;;;;;;;13.43;6.47;;;10.60;99.30;;;;;;5018091;28;20455;-75
2022/06/15 03:33:47;;;;;;;14.23;6.75;;;10.60;99.30;;;;;;5033765;28;20053;-74
2022/06/15 03:36:20;;;;;;;12.75;6.25;;;10.50;99.50;;;;;;5034896;28;20057;-75
2022/06/15 03:38:48;;;;;;;14.60;6.82;;;10.50;99.50;;;;;;5035034;28;20111;-75
2022/06/15 03:41:20;;;;;;;14.75;6.47;;;10.50;99.80;;;;;;5033597;28;20364;-75
2022/06/15 03:43:50;;;;;;;11.70;6.43;;;10.40;99.90;;;;;;5034975;28;20053;-75
2022/06/15 03:46:23;;;;;;;15.10;6.70;;;10.40;99.90;;;;;;5033394;28;20046;-75
2022/06/15 03:48:53;;;;;;;12.75;6.40;;;10.40;99.90;;;;;;5035209;28;20045;-74
2022/06/15 03:51:21;;;;;;;11.40;6.47;;;10.40;99.90;;;;;;5034303;28;20463;-75
2022/06/15 03:53:57;;;;;;;12.60;6.53;;;10.40;99.90;;;;;;5050012;28;20048;-75
2022/06/15 03:56:43;;;;;;;14.77;6.88;;;10.40;99.90;;;;;;5034284;28;20045;-75
2022/06/15 03:59:16;;;;;;;15.23;7.18;;;10.30;99.90;;;;;;5033300;28;20460;-75
2022/06/15 04:01:47;;;;;;;17.13;6.63;;;10.40;99.90;;;;;;5017591;28;20056;-75
2022/06/15 04:04:15;;;;;;;16.60;6.75;;;10.30;99.90;;;;;;4998275;28;20376;-74
2022/06/15 04:06:45;;;;;;;12.35;6.68;;;10.40;99.90;;;;;;4997268;28;20478;-75
2022/06/15 04:09:14;;;;;;;17.23;7.03;;;10.40;99.90;;;;;;5030880;28;20379;-75
2022/06/15 04:11:59;;;;;;;16.60;6.90;;;10.40;99.90;;;;;;4997830;28;20050;-75
2022/06/15 04:14:32;;;;;;;14.77;6.68;;;10.40;99.90;;;;;;4997223;28;20049;-75
2022/06/15 04:17:23;;;;;;;15.50;6.53;;;10.40;99.90;;;;;;5007349;28;20053;-74
2022/06/15 04:23:12;;;;;;;11.68;6.40;;;10.40;99.90;;;;;;4982242;28;20060;-75
2022/06/15 04:25:47;;;;;;;12.82;7.20;;;10.50;99.90;;;;;;4998188;28;20038;-75
2022/06/15 04:28:16;;;;;;;10.95;6.45;;;10.60;99.90;;;;;;4996638;28;20046;-75
2022/06/15 04:30:46;;;;;;;11.05;6.53;;;10.50;99.90;;;;;;4997653;28;20048;-74
2022/06/15 04:33:16;;;;;;;13.38;6.70;;;10.60;99.90;;;;;;4980898;28;20046;-74
2022/06/15 04:35:44;;;;;;;20.45;6.78;;;10.60;99.90;;;;;;5014917;28;20360;-74
2022/06/15 04:38:16;;;;;;;15.90;7.13;;;10.70;99.90;;;;;;4997873;28;20041;-74
2022/06/15 04:40:54;;;;;;;17.93;7.27;;;10.70;99.90;;;;;;4996478;28;20061;-75
2022/06/15 04:43:21;;;;;;;13.95;7.75;;;10.70;99.90;;;;;;5015297;28;20046;-74
2022/06/15 04:45:49;;;;;;;12.85;7.25;;;10.80;99.90;;;;;;4997605;28;20050;-74
2022/06/15 04:48:22;;;;;;;16.20;7.78;;;10.80;99.90;;;;;;4997469;28;20045;-75
2022/06/15 04:50:51;;;;;;;14.25;7.30;;;10.90;99.90;;;;;;4997471;28;20048;-75
2022/06/15 04:53:19;;;;;;;14.43;7.22;;;11.00;99.90;;;;;;4980394;28;20038;-75
2022/06/15 04:55:50;;;;;;;17.00;8.02;;;11.10;99.90;;;;;;4982065;28;20045;-75
2022/06/15 04:58:18;;;;;;;15.18;7.32;;;11.10;99.90;;;;;;5000512;28;20046;-75
2022/06/15 05:00:50;;;;;;;14.52;7.95;;;11.10;99.90;;;;;;5000757;28;20052;-75
2022/06/15 05:03:20;;;;;;;16.73;8.32;;;11.20;99.90;;;;;;5024191;28;20053;-75
2022/06/15 05:05:57;;;;;;;16.25;7.45;;;11.20;99.90;;;;;;5037490;28;20057;-75
2022/06/15 05:08:26;;;;;;;18.33;8.13;;;11.20;99.90;;;;;;5037929;28;20053;-75
2022/06/15 05:10:57;;;;;;;16.30;8.63;;;11.20;99.90;;;;;;5021357;28;20041;-75
2022/06/15 05:13:27;;;;;;;17.05;8.80;;;11.30;99.90;;;;;;5036385;28;20046;-75
2022/06/15 05:15:58;;;;;;;15.50;8.68;;;11.30;99.90;;;;;;5021394;28;20049;-75
2022/06/15 05:18:26;;;;;;;18.10;9.02;;;11.40;99.90;;;;;;5037496;28;20057;-75
2022/06/15 05:20:57;;;;;;;19.90;8.88;;;11.50;99.90;;;;;;5019771;28;20068;-75
2022/06/15 05:23:28;;;;;;;19.08;9.45;;;11.50;99.90;;;;;;5037546;28;20053;-75
2022/06/15 05:26:24;;;;;;;17.75;9.45;;;11.60;99.90;;;;;;5035891;28;20057;-74
2022/06/15 05:28:54;;;;;;;22.95;10.35;;;11.60;99.90;;;;;;5037125;28;20056;-75
2022/06/15 05:31:23;;;;;;;18.13;10.40;;;11.70;99.90;;;;;;5037279;28;20045;-75
2022/06/15 05:33:56;;;;;;;24.27;11.15;;;10.70;99.90;;;;;;5053029;28;20455;-75
2022/06/15 05:36:30;;;;;;;22.13;11.60;;;11.80;99.90;;;;;;5053699;28;20050;-75
2022/06/15 05:39:01;;;;;;;27.98;12.02;;;12.00;99.90;;;;;;5037188;28;20042;-75
2022/06/15 05:41:34;;;;;;;24.02;11.90;;;11.90;99.90;;;;;;5051659;28;20468;-74
2022/06/15 05:44:08;;;;;;;28.40;12.85;;;12.10;99.90;;;;;;5021132;28;20061;-75
2022/06/15 05:46:40;;;;;;;23.35;13.43;;;12.00;99.90;;;;;;5035949;28;20041;-76
2022/06/15 05:49:22;;;;;;;20.30;12.52;;;12.00;99.90;;;;;;5037133;28;20056;-75
2022/06/15 05:51:50;;;;;;;28.27;13.57;;;12.10;99.90;;;;;;5037087;28;20387;-75
2022/06/15 05:54:18;;;;;;;29.10;15.88;;;12.20;99.90;;;;;;5035874;28;20045;-75
2022/06/15 05:56:46;;;;;;;;;;;12.30;99.90;;;;;;5037427;28;20060;-75
2022/06/15 05:59:15;;;;;;;29.25;14.45;;;12.40;99.90;;;;;;5035924;28;20359;-75
2022/06/15 06:01:42;;;;;;;26.55;15.38;;;12.40;99.90;;;;;;5019757;28;20080;-75
2022/06/15 06:04:18;;;;;;;21.40;14.50;;;12.50;99.90;;;;;;5036484;28;20060;-75
2022/06/15 06:06:48;;;;;;;26.45;14.43;;;12.60;99.90;;;;;;5035875;28;20060;-75
2022/06/15 06:09:15;;;;;;;28.42;14.60;;;12.70;99.90;;;;;;5035994;28;20045;-75
2022/06/15 06:11:43;;;;;;;23.80;13.80;;;12.80;99.90;;;;;;5037682;28;20045;-75
2022/06/15 06:14:11;;;;;;;24.52;14.50;;;12.90;99.90;;;;;;5035621;28;20125;-75
2022/06/15 06:16:39;;;;;;;29.75;14.55;;;13.00;99.90;;;;;;5037089;28;20455;-75
2022/06/15 06:19:09;;;;;;;25.08;13.60;;;13.10;99.90;;;;;;5037477;28;20065;-75
2022/06/15 06:21:37;;;;;;;33.47;13.73;;;13.20;99.90;;;;;;5035284;28;20459;-75
2022/06/15 06:24:05;;;;;;;29.35;13.95;;;13.30;99.90;;;;;;5037600;28;20056;-76
2022/06/15 06:26:33;;;;;;;28.20;14.38;;;13.40;99.90;;;;;;5035024;28;20494;-75
2022/06/15 06:29:01;;;;;;;27.27;14.57;;;13.50;99.90;;;;;;5037146;28;20057;-75
2022/06/15 06:31:29;;;;;;;25.92;13.65;;;13.50;99.90;;;;;;5036637;28;20046;-75
2022/06/15 06:34:00;;;;;;;27.13;14.20;;;13.60;99.90;;;;;;5036027;28;20046;-84
2022/06/15 06:36:34;;;;;;;32.38;13.73;;;13.70;99.90;;;;;;5035268;28;20046;-82
2022/06/15 06:39:05;;;;;;;30.05;13.95;;;13.80;99.90;;;;;;5019182;28;20483;-82
2022/06/15 06:41:34;;;;;;;29.65;13.75;;;13.40;99.90;;;;;;5035628;28;20280;-78
2022/06/15 06:44:09;;;;;;;29.58;13.95;;;14.00;99.90;;;;;;5036334;28;20064;-78
2022/06/15 06:46:40;;;;;;;24.88;13.27;;;14.10;99.90;;;;;;5035355;28;20060;-76
2022/06/15 06:49:14;;;;;;;28.60;12.90;;;14.20;99.90;;;;;;5036130;28;20041;-75
2022/06/15 06:52:05;;;;;;;29.52;14.00;;;14.30;99.90;;;;;;5034672;28;20053;-78
2022/06/15 06:54:58;;;;;;;28.15;13.40;;;13.40;99.90;;;;;;5035001;28;20053;-80
2022/06/15 06:57:28;;;;;;;27.73;13.20;;;14.50;99.90;;;;;;5036128;28;20045;-79
2022/06/15 06:59:56;;;;;;;25.98;12.45;;;14.50;99.90;;;;;;5035793;28;20053;-82
2022/06/15 07:02:26;;;;;;;24.30;12.52;;;14.60;99.90;;;;;;5034511;28;20050;-79
2022/06/15 07:05:15;;;;;;;24.63;12.05;;;14.70;99.90;;;;;;5015947;28;20042;-80
2022/06/15 07:08:20;;;;;;;27.17;12.55;;;14.70;99.90;;;;;;5000779;28;20053;-77
2022/06/15 07:11:40;;;;;;;24.20;12.15;;;14.80;99.90;;;;;;4982777;28;20045;-80
2022/06/15 07:14:41;;;;;;;;;;;;;;;;;;;;;
2022/06/15 07:17:25;;;;;;;26.17;11.00;;;15.50;99.90;;;;;;5015008;28;20061;-80
2022/06/15 07:21:15;;;;;;;23.52;11.02;;;15.20;99.90;;;;;;4994666;28;20050;-76
2022/06/15 07:24:29;;;;;;;;;;;15.40;99.90;;;;;;4993898;28;20065;-75
2022/06/15 07:27:00;;;;;;;21.27;10.70;;;15.60;99.90;;;;;;5014923;28;19928;-75
2022/06/15 07:29:28;;;;;;;22.13;11.30;;;15.70;99.90;;;;;;4999275;28;20046;-74
2022/06/15 07:31:56;;;;;;;23.08;11.00;;;15.80;99.90;;;;;;5016160;28;20125;-75
2022/06/15 07:34:25;;;;;;;26.55;10.73;;;15.90;99.40;;;;;;5014924;28;20050;-75
2022/06/15 07:36:53;;;;;;;23.13;10.07;;;16.10;99.40;;;;;;5016038;28;20056;-75
2022/06/15 07:39:27;;;;;;;24.17;10.02;;;16.10;99.30;;;;;;5006132;28;20049;-76
2022/06/15 07:42:03;;;;;;;29.33;9.73;;;16.20;99.10;;;;;;5034184;28;20046;-74
2022/06/15 07:44:31;;;;;;;29.13;9.77;;;16.30;99.00;;;;;;5035387;28;20041;-75
2022/06/15 07:49:54;;;;;;;18.98;7.38;;;16.40;98.30;;;;;;5036102;28;20053;-74
2022/06/15 07:52:44;;;;;;;16.67;6.28;;;16.60;98.00;;;;;;5016863;28;20384;-74
2022/06/15 07:55:15;;;;;;;14.75;5.72;;;16.70;97.30;;;;;;5035032;28;20046;-74
2022/06/15 07:57:42;;;;;;;13.35;4.68;;;16.90;96.70;;;;;;5035173;28;20045;-74
2022/06/15 08:00:13;;;;;;;16.05;5.43;;;17.00;96.10;;;;;;5033849;28;20050;-72
2022/06/15 08:02:41;;;;;;;18.08;4.13;;;17.10;95.50;;;;;;5021982;28;20045;-74
2022/06/15 08:05:09;;;;;;;14.23;4.18;;;17.30;94.60;;;;;;5055039;28;20363;-75
2022/06/15 08:07:39;;;;;;;16.25;4.22;;;17.50;94.10;;;;;;5053515;28;20049;-75
2022/06/15 08:10:09;;;;;;;8.95;3.13;;;17.60;93.80;;;;;;5054556;28;20486;-74
2022/06/15 08:12:37;;;;;;;10.85;3.40;;;17.80;93.00;;;;;;5053535;28;20041;-75
2022/06/15 08:15:08;;;;;;;9.80;2.97;;;17.90;92.60;;;;;;5054710;28;20047;-75
2022/06/15 08:18:11;;;;;;;13.20;3.10;;;18.10;92.30;;;;;;5054473;28;20041;-75
2022/06/15 08:21:04;;;;;;;11.48;3.15;;;18.20;91.60;;;;;;5034035;28;20041;-75
2022/06/15 08:23:35;;;;;;;8.07;3.22;;;18.40;90.60;;;;;;5053498;28;20052;-75
2022/06/15 08:26:08;;;;;;;11.38;2.95;;;18.50;91.20;;;;;;5053135;28;20045;-75
2022/06/15 08:28:39;;;;;;;10.73;2.97;;;18.60;90.80;;;;;;5054841;28;20052;-74
2022/06/15 08:31:14;;;;;;;12.20;2.97;;;18.70;90.30;;;;;;5054731;28;20053;-74
2022/06/15 08:33:45;;;;;;;10.43;2.63;;;18.80;90.20;;;;;;5052433;28;20379;-74
2022/06/15 08:36:20;;;;;;;7.75;2.47;;;18.90;89.40;;;;;;5053222;28;20060;-74
2022/06/15 08:38:49;;;;;;;10.02;2.63;;;19.00;89.20;;;;;;5055093;28;20052;-75
2022/06/15 08:41:21;;;;;;;10.43;2.63;;;19.20;89.00;;;;;;5053322;28;20041;-74
2022/06/15 08:44:03;;;;;;;15.18;2.55;;;19.20;87.20;;;;;;5054897;28;20049;-74
2022/06/15 08:46:31;;;;;;;9.27;3.00;;;19.40;85.60;;;;;;5053348;28;20490;-75
2022/06/15 08:49:07;;;;;;;34.40;5.47;;;19.50;85.80;;;;;;5054337;28;20049;-74
2022/06/15 08:51:41;;;;;;;37.55;5.88;;;19.70;84.60;;;;;;5054960;28;20056;-74
2022/06/15 08:54:22;;;;;;;14.07;2.60;;;19.70;84.50;;;;;;5052594;28;20048;-74
2022/06/15 08:57:03;;;;;;;9.07;2.33;;;19.90;82.10;;;;;;5054397;28;20120;-74
2022/06/15 08:59:40;;;;;;;13.07;2.85;;;20.00;81.60;;;;;;5053905;28;20041;-75
2022/06/15 09:02:13;;;;;;;10.60;2.92;;;20.10;82.00;;;;;;5054501;28;20040;-74
2022/06/15 09:04:46;;;;;;;10.88;2.80;;;20.10;81.30;;;;;;5053708;28;20064;-74
2022/06/15 09:07:51;;;;;;;13.63;2.47;;;20.30;81.20;;;;;;5053202;28;20060;-75
2022/06/15 09:10:35;;;;;;;16.85;2.90;;;20.30;80.40;;;;;;5054267;28;20040;-75
2022/06/15 09:13:23;;;;;;;9.27;2.53;;;20.40;79.90;;;;;;5053153;28;20048;-75
2022/06/15 09:16:30;;;;;;;12.70;2.50;;;20.50;78.90;;;;;;5054367;28;20045;-74
2022/06/15 09:19:32;;;;;;;14.50;2.67;;;20.50;79.00;;;;;;5053672;28;20052;-74
2022/06/15 09:22:05;;;;;;;9.77;2.20;;;20.60;80.20;;;;;;5044162;28;20041;-74
2022/06/15 09:24:39;;;;;;;12.68;2.45;;;20.60;79.50;;;;;;5054261;28;20045;-75
2022/06/15 09:27:24;;;;;;;8.32;2.17;;;20.60;78.60;;;;;;5053276;28;20045;-75
2022/06/15 09:29:56;;;;;;;12.75;2.47;;;20.60;77.60;;;;;;5053497;28;20060;-75
2022/06/15 09:32:30;;;;;;;10.80;2.20;;;20.70;77.60;;;;;;5053869;28;20478;-75
2022/06/15 09:35:09;;;;;;;7.32;2.20;;;20.80;78.00;;;;;;5053891;28;20052;-74
2022/06/15 09:37:45;;;;;;;11.45;1.88;;;20.90;77.60;;;;;;5054109;28;20048;-75
2022/06/15 09:40:15;;;;;;;11.27;2.00;;;21.00;78.00;;;;;;5053060;28;20041;-74
2022/06/15 09:43:18;;;;;;;9.73;2.20;;;21.00;78.30;;;;;;5054324;28;20048;-75
2022/06/15 09:46:05;;;;;;;15.40;2.42;;;21.10;77.30;;;;;;5058146;28;20044;-75
2022/06/15 09:48:57;;;;;;;16.73;2.20;;;21.10;76.20;;;;;;5056952;28;20053;-75
2022/06/15 09:51:31;;;;;;;7.40;2.10;;;21.30;76.70;;;;;;5057618;28;20124;-75
2022/06/15 09:54:31;;;;;;;9.48;2.22;;;21.40;74.90;;;;;;5056314;28;20060;-75
2022/06/15 09:56:59;;;;;;;5.07;1.90;;;21.60;71.00;;;;;;5052169;28;20052;-74
2022/06/15 09:59:33;;;;;;;9.55;1.90;;;21.70;71.00;;;;;;5056198;28;20372;-74
2022/06/15 10:02:06;;;;;;;9.93;1.98;;;21.80;72.20;;;;;;5057012;28;20052;-75
2022/06/15 10:04:35;;;;;;;10.85;2.55;;;21.90;73.20;;;;;;5037598;28;20057;-74
2022/06/15 10:07:37;;;;;;;7.18;2.05;;;22.00;71.70;;;;;;5019070;28;20054;-75
2022/06/15 10:10:21;;;;;;;7.78;2.13;;;22.10;70.00;;;;;;5031580;28;20061;-75
2022/06/15 10:12:56;;;;;;;16.15;2.47;;;22.20;69.90;;;;;;5035796;28;20468;-75
2022/06/15 10:15:28;;;;;;;5.32;2.03;;;22.20;70.10;;;;;;5020131;28;20056;-74
2022/06/15 10:18:17;;;;;;;7.82;2.17;;;22.30;70.60;;;;;;5037182;28;20054;-75
2022/06/15 10:21:02;;;;;;;10.30;2.10;;;22.30;70.40;;;;;;5035956;28;20069;-75
2022/06/15 10:23:41;;;;;;;10.73;2.17;;;22.40;69.60;;;;;;5020143;28;20457;-75
2022/06/15 10:26:29;;;;;;;11.07;2.63;;;22.40;68.60;;;;;;5036008;28;20491;-75
2022/06/15 10:28:59;;;;;;;7.60;2.33;;;22.40;69.60;;;;;;5019580;28;20388;-75
2022/06/15 10:31:33;;;;;;;13.32;2.40;;;22.30;69.90;;;;;;5037385;28;20061;-75
2022/06/15 10:34:20;;;;;;;11.60;2.40;;;22.20;69.30;;;;;;5035677;28;20045;-75
2022/06/15 10:36:55;;;;;;;10.50;2.40;;;22.30;69.50;;;;;;5036883;28;20037;-74
2022/06/15 10:39:29;;;;;;;5.90;1.90;;;22.30;70.10;;;;;;5035426;28;20050;-74
2022/06/15 10:42:05;;;;;;;7.35;2.33;;;22.40;68.80;;;;;;5036821;28;20049;-75
2022/06/15 10:44:49;;;;;;;6.45;1.90;;;22.40;69.20;;;;;;5036724;28;20056;-75
2022/06/15 10:47:38;;;;;;;8.88;2.22;;;22.60;67.40;;;;;;5018143;28;20060;-75
2022/06/15 10:50:17;;;;;;;23.73;4.35;;;22.70;69.20;;;;;;5036658;28;20078;-74
2022/06/15 10:53:02;;;;;;;10.18;2.08;;;22.80;69.00;;;;;;5035202;28;20049;-74
2022/06/15 11:04:18;;;;;;;5.78;2.03;;;23.10;66.50;;;;;;5035983;28;20054;-75
2022/06/15 11:07:04;;;;;;;8.60;1.70;;;23.20;65.10;;;;;;5017671;28;20050;-74
2022/06/15 11:09:36;;;;;;;5.38;1.70;;;23.20;64.90;;;;;;5036107;28;20483;-75
2022/06/15 11:12:39;;;;;;;6.93;1.90;;;23.20;65.70;;;;;;5018796;28;20061;-75
2022/06/15 11:15:14;;;;;;;11.10;2.00;;;23.30;65.90;;;;;;5036187;28;20056;-75
2022/06/15 11:18:04;;;;;;;7.22;2.08;;;23.30;65.40;;;;;;5018922;28;20041;-75
2022/06/15 11:20:47;;;;;;;5.85;2.30;;;23.40;65.00;;;;;;5034866;28;20056;-74
2022/06/15 11:23:26;;;;;;;11.73;2.10;;;23.50;65.20;;;;;;5036144;28;20045;-74
2022/06/15 11:26:52;;;;;;;9.20;2.17;;;23.50;65.80;;;;;;5017432;28;20053;-75
2022/06/15 11:28:56;;;;;;;8.93;2.00;;;23.50;65.80;;;;;;5035659;28;20049;-75
2022/06/15 11:31:44;;;;;;;9.23;2.00;;;23.50;64.60;;;;;;5035826;28;20052;-74
2022/06/15 11:34:19;;;;;;;7.35;1.95;;;23.50;65.30;;;;;;5034476;28;20049;-75
2022/06/15 11:36:57;;;;;;;9.32;2.10;;;23.60;65.60;;;;;;5035800;28;20053;-75
2022/06/15 11:39:39;;;;;;;17.27;2.60;;;23.60;65.50;;;;;;5017097;28;20052;-75
2022/06/15 11:42:12;;;;;;;10.40;1.95;;;23.70;63.80;;;;;;5035403;28;20056;-75
2022/06/15 11:44:43;;;;;;;7.05;2.30;;;23.80;64.50;;;;;;5002302;28;20049;-75
2022/06/15 11:47:56;;;;;;;7.97;2.08;;;23.80;64.40;;;;;;5034591;28;20068;-75
2022/06/15 11:50:37;;;;;;;6.40;2.10;;;23.80;63.50;;;;;;5035203;28;20372;-74
2022/06/15 11:53:31;;;;;;;10.35;2.53;;;24.00;63.70;;;;;;5017299;28;20046;-75
2022/06/15 11:56:11;;;;;;;18.02;2.83;;;24.10;63.70;;;;;;5035344;28;20046;-75
2022/06/15 11:58:59;;;;;;;7.03;1.83;;;24.20;62.40;;;;;;5035169;28;20053;-74
2022/06/15 12:02:32;;;;;;;9.02;1.98;;;24.30;63.20;;;;;;5035486;28;20041;-75
2022/06/15 12:05:08;;;;;;;10.32;2.30;;;24.30;61.50;;;;;;5014097;28;20061;-74
2022/06/15 12:08:02;;;;;;;6.72;1.83;;;24.30;63.20;;;;;;5030643;28;20060;-74
2022/06/15 12:10:42;;;;;;;8.90;2.30;;;24.40;62.80;;;;;;5035027;28;20376;-75
2022/06/15 12:13:34;;;;;;;8.18;2.25;;;24.50;62.30;;;;;;5034068;28;20045;-75
2022/06/15 12:16:15;;;;;;;6.47;2.10;;;24.50;60.90;;;;;;5034867;28;20053;-75
2022/06/15 12:18:49;;;;;;;8.57;2.17;;;24.50;61.50;;;;;;5034790;28;20054;-75
2022/06/15 12:21:33;;;;;;;7.40;2.20;;;24.50;61.90;;;;;;5033562;28;20053;-75
2022/06/15 12:24:16;;;;;;;6.70;2.03;;;24.50;62.20;;;;;;5034729;28;20042;-74
2022/06/15 12:27:04;;;;;;;6.15;2.10;;;24.60;61.90;;;;;;5033863;28;20045;-74
2022/06/15 12:30:02;;;;;;;6.35;1.77;;;24.70;62.50;;;;;;5034851;28;20445;-75
2022/06/15 12:35:10;;;;;;;;;;;24.90;60.80;;;;;;5017754;28;19920;-75
2022/06/15 12:37:55;;;;;;;;;;;25.00;61.80;;;;;;5035309;28;19928;-75
2022/06/15 12:40:38;;;;;;;;;;;25.00;62.50;;;;;;5034417;28;19921;-75
2022/06/15 12:43:14;;;;;;;;;;;25.20;61.60;;;;;;5035060;28;19928;-75
2022/06/15 12:45:43;;;;;;;;;;;25.30;62.00;;;;;;5035263;28;19921;-74
2022/06/15 12:48:34;;;;;;;;;;;25.30;60.90;;;;;;5033847;28;19921;-75
2022/06/15 12:51:34;;;;;;;;;;;25.30;60.00;;;;;;5010215;28;19921;-75
2022/06/15 12:54:07;;;;;;;;;;;25.40;61.50;;;;;;5000591;28;19925;-75
2022/06/15 12:56:39;;;;;;;;;;;25.60;61.40;;;;;;5034972;28;19921;-75
2022/06/15 12:59:22;;;;;;;;;;;25.70;61.70;;;;;;5035047;28;19928;-75
2022/06/15 13:02:01;;;;;;;;;;;25.90;60.20;;;;;;5035217;28;20347;-75
2022/06/15 13:04:37;;;;;;;;;;;26.10;60.30;;;;;;5034814;28;19921;-74
2022/06/15 13:07:31;;;;;;;;;;;26.20;60.20;;;;;;5016301;28;19921;-74
2022/06/15 13:10:08;;;;;;;;;;;26.30;59.60;;;;;;5030645;28;20275;-75
2022/06/15 13:12:46;;;;;;;;;;;26.30;60.10;;;;;;5033991;28;19921;-75
2022/06/15 13:15:21;;;;;;;;;;;26.20;59.50;;;;;;5017589;28;19928;-75
2022/06/15 13:18:09;;;;;;;;;;;26.20;60.20;;;;;;5035650;28;19921;-74
2022/06/15 13:20:45;;;;;;;;;;;26.40;61.60;;;;;;5037773;28;19921;-75
2022/06/15 13:23:24;;;;;;;;;;;26.20;59.90;;;;;;5038832;28;19921;-75
2022/06/15 13:25:59;;;;;;;;;;;26.90;58.00;;;;;;5037400;28;19921;-75
2022/06/15 13:28:29;;;;;;;;;;;28.40;59.60;;;;;;5038850;28;19920;-75
2022/06/15 13:30:58;;;;;;;;;;;29.90;58.10;;;;;;5038500;28;20259;-75
2022/06/15 13:33:44;;;;;;;;;;;31.50;56.10;;;;;;5037443;28;19921;-75
2022/06/15 13:36:11;;;;;;;;;;;32.60;52.80;;;;;;5021282;28;19921;-75
2022/06/15 13:38:40;;;;;;;;;;;33.50;52.30;;;;;;5021208;28;19920;-75
2022/06/15 13:41:13;;;;;;;;;;;34.40;51.70;;;;;;5037041;28;20366;-75
2022/06/15 13:43:43;;;;;;;;;;;35.20;50.30;;;;;;5038484;28;19928;-76
2022/06/15 13:46:20;;;;;;;;;;;35.90;50.30;;;;;;5037201;28;19921;-75
2022/06/15 13:48:48;;;;;;;;;;;36.30;50.40;;;;;;5038180;28;19950;-75
2022/06/15 13:51:19;;;;;;;;;;;37.10;48.80;;;;;;5038635;28;19920;-76
2022/06/15 13:54:05;;;;;;;;;;;37.60;48.60;;;;;;5036826;28;19921;-76
2022/06/15 13:56:44;;;;;;;;;;;37.60;46.70;;;;;;5037955;28;19921;-76